Time,TemperatureF,DewpointF,PressureIn,WindDirection,WindDirectionDegrees,WindSpeedMPH,WindSpeedGustMPH,Humidity,HourlyPrecipIn,Conditions,Clouds,dailyrainin,SoftwareType,DateUTC
2015-04-19 00:04:00,69.6,41.5,29.90,NNW,339,1.0,1.0,36,0.00,,,0.00,Wunderground v.1.13,2015-04-19 04:04:00,
2015-04-19 00:14:00,70.1,41.9,29.89,NW,309,2.0,5.0,36,0.00,,,0.00,Wunderground v.1.13,2015-04-19 04:14:00,
2015-04-19 00:24:00,70.3,41.3,29.89,North,350,2.0,2.0,35,0.00,,,0.00,Wunderground v.1.13,2015-04-19 04:24:00,
2015-04-19 00:34:00,70.1,41.2,29.89,North,4,1.0,5.0,35,0.00,,,0.00,Wunderground v.1.13,2015-04-19 04:34:00,
2015-04-19 00:54:00,69.6,41.5,29.89,North,352,0.0,5.0,36,0.00,,,0.00,Wunderground v.1.13,2015-04-19 04:54:00,
2015-04-19 01:24:00,69.1,41.7,29.89,North,6,1.0,1.0,37,0.00,,,0.00,Wunderground v.1.13,2015-04-19 05:24:00,
2015-04-19 01:34:00,68.9,41.5,29.89,NNW,344,1.0,5.0,37,0.00,,,0.00,Wunderground v.1.13,2015-04-19 05:34:00,
2015-04-19 01:44:00,68.6,42.0,29.89,NNW,337,0.0,5.0,38,0.00,,,0.00,Wunderground v.1.13,2015-04-19 05:44:00,
2015-04-19 01:54:00,68.4,41.8,29.89,North,0,1.0,1.0,38,0.00,,,0.00,Wunderground v.1.13,2015-04-19 05:54:00,
2015-04-19 02:04:00,68.1,41.5,29.88,North,359,1.0,5.0,38,0.00,,,0.00,Wunderground v.1.13,2015-04-19 06:04:00,
2015-04-19 02:14:00,68.1,42.2,29.88,NW,325,1.0,1.0,39,0.00,,,0.00,Wunderground v.1.13,2015-04-19 06:14:00,
2015-04-19 02:24:00,67.9,42.0,29.87,NNW,332,2.0,2.0,39,0.00,,,0.00,Wunderground v.1.13,2015-04-19 06:24:00,
2015-04-19 02:34:00,67.9,42.0,29.87,North,354,2.0,6.0,39,0.00,,,0.00,Wunderground v.1.13,2015-04-19 06:34:00,
2015-04-19 02:44:00,67.8,41.9,29.87,NNW,346,1.0,5.0,39,0.00,,,0.00,Wunderground v.1.13,2015-04-19 06:44:00,
2015-04-19 02:54:00,67.6,42.4,29.86,NW,320,1.0,1.0,40,0.00,,,0.00,Wunderground v.1.13,2015-04-19 06:54:00,
2015-04-19 03:04:00,67.3,42.1,29.87,North,354,1.0,1.0,40,0.00,,,0.00,Wunderground v.1.13,2015-04-19 07:04:00,
2015-04-19 03:14:00,67.1,42.6,29.87,NNW,335,1.0,1.0,41,0.00,,,0.00,Wunderground v.1.13,2015-04-19 07:14:00,
2015-04-19 03:24:00,66.9,42.4,29.85,North,0,1.0,5.0,41,0.00,,,0.00,Wunderground v.1.13,2015-04-19 07:24:00,
2015-04-19 03:34:00,66.8,42.3,29.85,NW,313,1.0,1.0,41,0.00,,,0.00,Wunderground v.1.13,2015-04-19 07:34:00,
2015-04-19 03:44:00,66.6,42.8,29.85,NNW,336,1.0,7.0,42,0.00,,,0.00,Wunderground v.1.13,2015-04-19 07:44:00,
2015-04-19 03:54:00,66.4,43.2,29.85,North,0,1.0,5.0,43,0.00,,,0.00,Wunderground v.1.13,2015-04-19 07:54:00,
2015-04-19 04:04:00,66.1,42.9,29.85,NNW,330,1.0,1.0,43,0.00,,,0.00,Wunderground v.1.13,2015-04-19 08:04:00,
2015-04-19 04:14:00,66.0,43.5,29.84,NNW,329,0.0,5.0,44,0.00,,,0.00,Wunderground v.1.13,2015-04-19 08:14:00,
2015-04-19 04:24:00,65.6,43.7,29.83,NNW,336,1.0,1.0,45,0.00,,,0.00,Wunderground v.1.13,2015-04-19 08:24:00,
2015-04-19 04:34:00,65.5,43.6,29.83,NNW,337,0.0,5.0,45,0.00,,,0.00,Wunderground v.1.13,2015-04-19 08:34:00,
2015-04-19 04:44:00,65.2,43.9,29.82,NNW,329,0.0,5.0,46,0.00,,,0.00,Wunderground v.1.13,2015-04-19 08:44:00,
2015-04-19 04:54:00,65.0,43.7,29.82,NW,320,0.0,5.0,46,0.00,,,0.00,Wunderground v.1.13,2015-04-19 08:54:00,
2015-04-19 05:04:00,64.7,44.5,29.82,NW,313,0.0,5.0,48,0.00,,,0.00,Wunderground v.1.13,2015-04-19 09:04:00,
2015-04-19 05:14:00,64.5,44.4,29.82,NW,313,0.0,5.0,48,0.00,,,0.00,Wunderground v.1.13,2015-04-19 09:14:00,
2015-04-19 05:24:00,64.2,44.6,29.82,NW,313,0.0,5.0,49,0.00,,,0.00,Wunderground v.1.13,2015-04-19 09:24:00,
2015-04-19 05:34:00,63.9,44.9,29.82,NW,313,0.0,5.0,50,0.00,,,0.00,Wunderground v.1.13,2015-04-19 09:34:00,
2015-04-19 05:44:00,63.5,45.0,29.81,NW,313,0.0,5.0,51,0.00,,,0.00,Wunderground v.1.13,2015-04-19 09:44:00,
2015-04-19 05:54:00,63.2,45.3,29.81,NW,313,0.0,5.0,52,0.00,,,0.00,Wunderground v.1.13,2015-04-19 09:54:00,
2015-04-19 06:04:00,62.9,45.5,29.81,NW,313,0.0,5.0,53,0.00,,,0.00,Wunderground v.1.13,2015-04-19 10:04:00,
2015-04-19 06:14:00,62.7,44.8,29.81,NW,313,0.0,5.0,52,0.00,,,0.00,Wunderground v.1.13,2015-04-19 10:14:00,
2015-04-19 06:24:00,62.6,44.7,29.80,NW,313,0.0,5.0,52,0.00,,,0.00,Wunderground v.1.13,2015-04-19 10:24:00,
2015-04-19 06:44:00,62.4,45.0,29.80,NW,313,0.0,5.0,53,0.00,,,0.00,Wunderground v.1.13,2015-04-19 10:44:00,
2015-04-19 06:54:00,62.3,44.9,29.79,NW,313,0.0,5.0,53,0.00,,,0.00,Wunderground v.1.13,2015-04-19 10:54:00,
2015-04-19 07:04:00,62.3,45.4,29.79,NW,313,0.0,5.0,54,0.00,,,0.00,Wunderground v.1.13,2015-04-19 11:04:00,
2015-04-19 07:14:00,62.1,44.8,29.79,NW,313,0.0,5.0,53,0.00,,,0.00,Wunderground v.1.13,2015-04-19 11:14:00,
2015-04-19 07:24:00,62.3,44.4,29.80,NW,309,1.0,1.0,52,0.00,,,0.00,Wunderground v.1.13,2015-04-19 11:24:00,
2015-04-19 07:34:00,62.4,44.5,29.80,NW,309,0.0,5.0,52,0.00,,,0.00,Wunderground v.1.13,2015-04-19 11:34:00,
2015-04-19 07:44:00,62.4,44.5,29.79,NW,309,0.0,5.0,52,0.00,,,0.00,Wunderground v.1.13,2015-04-19 11:44:00,
2015-04-19 07:54:00,62.4,44.5,29.80,NW,309,0.0,5.0,52,0.00,,,0.00,Wunderground v.1.13,2015-04-19 11:54:00,
2015-04-19 08:04:00,62.4,45.0,29.80,NW,309,0.0,5.0,53,0.00,,,0.00,Wunderground v.1.13,2015-04-19 12:04:00,
2015-04-19 08:14:00,62.4,45.0,29.79,NW,309,0.0,5.0,53,0.00,,,0.00,Wunderground v.1.13,2015-04-19 12:14:00,
2015-04-19 08:24:00,62.4,45.0,29.79,NW,309,0.0,5.0,53,0.00,,,0.00,Wunderground v.1.13,2015-04-19 12:24:00,
2015-04-19 08:34:00,62.4,45.0,29.79,NW,309,0.0,5.0,53,0.00,,,0.00,Wunderground v.1.13,2015-04-19 12:34:00,
2015-04-19 08:44:00,62.6,45.2,29.78,NW,309,0.0,5.0,53,0.00,,,0.00,Wunderground v.1.13,2015-04-19 12:44:00,
2015-04-19 08:54:00,62.7,45.3,29.78,NW,309,0.0,5.0,53,0.00,,,0.00,Wunderground v.1.13,2015-04-19 12:54:00,
2015-04-19 09:04:00,62.9,45.5,29.78,NW,309,0.0,5.0,53,0.00,,,0.00,Wunderground v.1.13,2015-04-19 13:04:00,
2015-04-19 09:14:00,62.9,46.0,29.77,NW,309,0.0,5.0,54,0.00,,,0.00,Wunderground v.1.13,2015-04-19 13:14:00,
2015-04-19 09:24:00,62.9,46.0,29.77,NW,309,0.0,5.0,54,0.00,,,0.00,Wunderground v.1.13,2015-04-19 13:24:00,
2015-04-19 09:34:00,62.9,46.0,29.77,NW,309,0.0,5.0,54,0.00,,,0.00,Wunderground v.1.13,2015-04-19 13:34:00,
2015-04-19 09:44:00,63.1,46.2,29.77,NW,309,0.0,5.0,54,0.00,,,0.00,Wunderground v.1.13,2015-04-19 13:44:00,
2015-04-19 09:54:00,63.2,46.3,29.76,NW,309,0.0,5.0,54,0.00,,,0.00,Wunderground v.1.13,2015-04-19 13:54:00,
2015-04-19 10:14:00,63.5,47.5,29.76,NW,309,0.0,5.0,56,0.00,,,0.00,Wunderground v.1.13,2015-04-19 14:14:00,
2015-04-19 10:24:00,63.5,48.5,29.75,NW,309,0.0,5.0,58,0.00,,,0.00,Wunderground v.1.13,2015-04-19 14:24:00,
2015-04-19 10:34:00,64.0,50.3,29.75,North,352,1.0,5.0,61,0.00,,,0.00,Wunderground v.1.13,2015-04-19 14:34:00,
2015-04-19 10:44:00,64.2,51.3,29.75,ENE,76,1.0,1.0,63,0.00,,,0.00,Wunderground v.1.13,2015-04-19 14:44:00,
2015-04-19 10:54:00,63.9,52.3,29.75,NE,56,1.0,5.0,66,0.00,,,0.00,Wunderground v.1.13,2015-04-19 14:54:00,
2015-04-19 11:04:00,63.4,53.0,29.75,North,10,1.0,5.0,69,0.00,,,0.01,Wunderground v.1.13,2015-04-19 15:04:00,
2015-04-19 11:14:00,63.4,54.6,29.74,NNE,16,2.0,2.0,73,0.06,,,0.02,Wunderground v.1.13,2015-04-19 15:14:00,